Time;durP1;ratioP1;P1;durP2;ratioP2;P2;SDS_P1;SDS_P2;PMS_P1;PMS_P2;Temp;Humidity;BMP_temperature;BMP_pressure;BME280_temperature;BME280_humidity;BME280_pressure;Samples;Min_cycle;Max_cycle;Signal;HPM_P1;HPM_P2
2023/08/02 06:39:03;;;;;;;17.20;5.50;;;16.00;99.90;;;;;;6123745;23;20029;-89
2023/08/02 06:41:50;;;;;;;11.48;4.13;;;16.00;99.90;;;;;;5979538;24;20031;-87
2023/08/02 06:44:19;;;;;;;19.27;4.68;;;16.00;99.90;;;;;;6100825;23;20466;-88
2023/08/02 06:46:52;;;;;;;13.10;4.15;;;15.90;99.90;;;;;;6100719;23;20054;-88
2023/08/02 06:49:55;;;;;;;12.20;4.30;;;16.40;99.90;;;;;;6101056;23;20017;-90
2023/08/02 06:53:33;;;;;;;11.23;4.00;;;15.90;99.90;;;;;;6090556;23;20022;-87
2023/08/02 06:56:28;;;;;;;11.98;4.50;;;15.50;99.90;;;;;;6126261;23;20106;-88
2023/08/02 07:02:18;;;;;;;19.45;5.32;;;15.80;99.90;;;;;;5900862;24;20033;-88
2023/08/02 07:05:56;;;;;;;19.60;6.28;;;15.70;99.90;;;;;;5871236;24;20026;-90
2023/08/02 07:08:25;;;;;;;14.45;4.72;;;15.80;99.90;;;;;;5812590;24;20026;-86
2023/08/02 07:11:05;;;;;;;12.75;4.95;;;16.00;99.90;;;;;;5993292;23;20099;-88
2023/08/02 07:13:51;;;;;;;13.48;5.05;;;15.80;99.90;;;;;;6077384;23;20022;-86
2023/08/02 07:16:25;;;;;;;14.10;5.50;;;15.60;99.90;;;;;;6125080;23;20018;-87
2023/08/02 07:21:27;;;;;;;12.85;4.65;;;15.90;99.90;;;;;;6094773;23;20355;-87
2023/08/02 07:24:01;;;;;;;13.60;4.65;;;15.90;99.90;;;;;;6067012;23;20029;-88
2023/08/02 07:26:34;;;;;;;11.38;3.80;;;15.90;99.90;;;;;;6096034;23;20028;-88
2023/08/02 07:31:35;;;;;;;11.57;4.20;;;15.90;99.90;;;;;;6150123;23;20018;-85
2023/08/02 07:36:36;;;;;;;12.35;3.70;;;15.90;99.90;;;;;;6152155;23;20018;-85
2023/08/02 07:39:10;;;;;;;16.00;4.45;;;15.90;99.90;;;;;;6155593;23;20018;-86
2023/08/02 07:41:42;;;;;;;11.20;3.78;;;15.80;99.90;;;;;;6129208;23;20020;-86
2023/08/02 07:48:08;;;;;;;11.60;3.33;;;15.60;99.90;;;;;;5925528;24;20025;-87
2023/08/02 07:50:42;;;;;;;12.50;4.13;;;15.70;99.90;;;;;;6151592;23;20016;-86
2023/08/02 07:53:25;;;;;;;11.95;4.10;;;15.70;99.90;;;;;;6129381;23;20394;-87
2023/08/02 07:56:02;;;;;;;12.20;3.38;;;15.60;99.90;;;;;;6128703;23;20141;-86
2023/08/02 07:58:28;;;;;;;12.30;3.88;;;15.60;99.90;;;;;;6155275;23;20017;-88
2023/08/02 08:01:07;;;;;;;12.13;4.10;;;15.50;99.90;;;;;;6155252;23;20013;-86
2023/08/02 08:03:33;;;;;;;10.52;4.10;;;15.40;99.90;;;;;;6155489;23;20045;-86
2023/08/02 08:06:35;;;;;;;15.02;3.80;;;15.40;99.90;;;;;;6128167;23;20013;-86
2023/08/02 08:09:01;;;;;;;12.90;4.30;;;15.30;99.90;;;;;;6156064;23;20024;-87
2023/08/02 08:11:33;;;;;;;12.27;4.40;;;15.30;99.90;;;;;;6155492;23;20014;-89
2023/08/02 08:14:14;;;;;;;14.40;4.30;;;14.90;99.90;;;;;;6129630;23;20335;-91
2023/08/02 08:16:58;;;;;;;10.55;4.05;;;15.20;99.90;;;;;;6128833;23;20486;-89
2023/08/02 08:19:37;;;;;;;14.55;4.55;;;15.20;99.90;;;;;;6128109;23;20092;-92
2023/08/02 08:22:33;;;;;;;12.43;4.50;;;15.20;99.90;;;;;;6117511;23;20021;-90
2023/08/02 08:25:25;;;;;;;20.52;5.15;;;15.00;99.90;;;;;;6129677;23;20021;-89
2023/08/02 08:40:50;;;;;;;14.15;5.50;;;15.50;99.90;;;;;;6125592;23;20041;-87
2023/08/02 08:47:51;;;;;;;14.90;5.47;;;15.40;99.90;;;;;;6005926;23;20219;-90
2023/08/02 08:50:32;;;;;;;17.38;5.43;;;15.70;99.90;;;;;;6007693;23;20020;-90
2023/08/02 08:53:33;;;;;;;14.25;5.35;;;15.80;99.90;;;;;;5984817;23;20071;-89
2023/08/02 08:56:33;;;;;;;17.33;5.78;;;15.60;99.90;;;;;;5942632;23;20008;-89
2023/08/02 09:13:27;;;;;;;10.93;4.65;;;16.10;99.90;;;;;;6088004;23;20021;-90
2023/08/02 09:16:13;;;;;;;16.45;5.40;;;16.00;99.90;;;;;;6153454;23;20807;-89
2023/08/02 09:18:46;;;;;;;11.93;4.97;;;16.00;99.90;;;;;;6129079;23;20013;-90
2023/08/02 09:21:25;;;;;;;13.25;5.55;;;15.90;99.90;;;;;;6129083;23;20010;-89
2023/08/02 09:37:53;;;;;;;15.00;5.50;;;16.10;99.90;;;;;;6066901;23;20034;-92
2023/08/02 09:40:49;;;;;;;12.82;5.40;;;15.90;99.90;;;;;;6067093;23;20038;-92
2023/08/02 09:43:25;;;;;;;;;;;;;;;;;;;;;
2023/08/02 10:53:05;;;;;;;9.05;3.20;;;16.40;99.90;;;;;;6141708;23;20211;-86
2023/08/02 10:56:31;;;;;;;8.93;3.30;;;16.20;99.90;;;;;;6095988;23;20018;-87
2023/08/02 11:02:25;;;;;;;8.63;3.25;;;16.20;99.90;;;;;;6067743;23;20033;-87
2023/08/02 11:05:51;;;;;;;7.75;3.05;;;16.20;99.90;;;;;;6096601;23;20124;-87
2023/08/02 11:08:19;;;;;;;8.40;2.80;;;16.30;99.90;;;;;;6091132;23;20056;-89
2023/08/02 11:10:59;;;;;;;7.85;2.67;;;16.40;99.90;;;;;;6096208;23;20019;-86
2023/08/02 11:17:31;;;;;;;8.32;2.38;;;16.80;99.90;;;;;;6097940;23;20053;-86
2023/08/02 11:20:05;;;;;;;7.82;2.55;;;16.90;99.90;;;;;;6033358;23;20018;-85
2023/08/02 11:26:40;;;;;;;8.15;2.50;;;16.50;99.90;;;;;;6016367;23;20023;-85
2023/08/02 11:29:13;;;;;;;7.55;2.30;;;17.10;99.90;;;;;;6074143;23;20025;-86
2023/08/02 11:32:32;;;;;;;6.28;2.20;;;17.20;99.90;;;;;;6101293;23;20077;-86
2023/08/02 11:35:49;;;;;;;6.90;2.17;;;17.00;99.90;;;;;;6126348;23;20498;-86
2023/08/02 11:38:14;;;;;;;6.82;2.30;;;17.70;99.90;;;;;;6126822;23;20022;-86
2023/08/02 11:40:48;;;;;;;5.95;2.25;;;17.30;99.90;;;;;;6100657;23;20014;-86
2023/08/02 11:43:45;;;;;;;;;;;;;;;;;;;;;
2023/08/02 11:46:40;;;;;;;6.07;2.22;;;17.40;99.90;;;;;;6113988;23;20021;-86
2023/08/02 11:51:42;;;;;;;9.05;3.80;;;17.60;99.90;;;;;;6124535;23;20026;-86
2023/08/02 11:54:08;;;;;;;7.68;3.10;;;17.60;99.90;;;;;;6150076;23;20010;-86
2023/08/02 11:56:55;;;;;;;7.15;2.78;;;17.70;99.90;;;;;;6143418;23;20530;-86
2023/08/02 11:59:24;;;;;;;13.57;3.00;;;17.80;99.90;;;;;;6102213;23;20385;-88
2023/08/02 12:01:50;;;;;;;8.23;2.80;;;17.90;99.90;;;;;;6126894;23;20153;-86
2023/08/02 12:04:38;;;;;;;10.05;3.58;;;18.10;99.90;;;;;;6126461;23;20458;-87
2023/08/02 12:11:33;;;;;;;13.55;3.88;;;18.20;99.90;;;;;;6122877;23;20112;-87
2023/08/02 12:14:02;;;;;;;11.90;3.60;;;18.70;99.90;;;;;;6099250;23;20073;-90
2023/08/02 12:16:43;;;;;;;16.00;3.95;;;18.70;99.90;;;;;;6099568;23;20025;-90
2023/08/02 12:19:38;;;;;;;9.27;4.25;;;19.00;99.90;;;;;;6100362;23;20057;-88
2023/08/02 12:22:14;;;;;;;9.15;4.00;;;19.30;99.90;;;;;;6100903;23;20366;-89
2023/08/02 12:24:40;;;;;;;8.15;3.75;;;19.50;99.90;;;;;;6101039;23;20017;-89
2023/08/02 12:27:21;;;;;;;8.95;3.80;;;19.70;99.90;;;;;;6126495;23;20533;-90
2023/08/02 12:29:47;;;;;;;8.20;3.83;;;19.70;99.90;;;;;;6100311;23;20101;-88
2023/08/02 12:32:27;;;;;;;10.27;4.45;;;19.80;99.90;;;;;;6099541;23;20041;-87
2023/08/02 12:35:05;;;;;;;8.50;3.90;;;20.20;99.90;;;;;;6100461;23;20062;-87
2023/08/02 12:37:50;;;;;;;7.57;3.80;;;20.30;99.90;;;;;;6126475;23;20010;-86
2023/08/02 12:40:27;;;;;;;15.73;4.90;;;20.20;99.90;;;;;;6099476;23;20447;-90
2023/08/02 12:43:37;;;;;;;16.20;4.88;;;19.80;99.90;;;;;;6099489;23;20258;-87
2023/08/02 12:46:17;;;;;;;9.75;4.78;;;19.90;99.90;;;;;;6098978;23;20029;-89
2023/08/02 12:49:08;;;;;;;10.75;4.50;;;19.90;99.90;;;;;;6099854;23;20089;-87
2023/08/02 12:51:51;;;;;;;8.38;4.00;;;19.80;99.90;;;;;;6124615;23;20392;-86
2023/08/02 12:54:17;;;;;;;8.90;4.78;;;20.10;99.90;;;;;;6125426;23;20060;-86
2023/08/02 12:56:54;;;;;;;9.88;4.00;;;20.20;99.90;;;;;;6099775;23;20421;-86
2023/08/02 13:06:11;;;;;;;9.18;4.43;;;20.20;99.90;;;;;;6099658;23;20026;-86
2023/08/02 13:08:37;;;;;;;8.30;4.50;;;20.10;99.90;;;;;;6097292;23;20025;-86
2023/08/02 13:11:21;;;;;;;9.32;4.45;;;20.10;99.90;;;;;;6099851;23;20406;-86
2023/08/02 13:13:49;;;;;;;9.50;4.35;;;19.90;99.90;;;;;;6098987;23;20025;-86
2023/08/02 13:16:40;;;;;;;10.25;4.75;;;19.90;99.90;;;;;;6127747;23;20018;-87
2023/08/02 13:19:06;;;;;;;8.60;4.45;;;20.10;99.90;;;;;;6125896;23;20454;-87
2023/08/02 13:21:31;;;;;;;9.00;5.10;;;20.20;99.90;;;;;;6099042;23;20057;-86
2023/08/02 13:23:57;;;;;;;9.13;4.93;;;20.20;99.90;;;;;;6099801;23;20072;-86
2023/08/02 13:26:34;;;;;;;9.38;4.78;;;20.30;99.90;;;;;;6099917;23;20021;-86
2023/08/02 13:29:02;;;;;;;8.82;4.72;;;20.50;99.90;;;;;;6097661;23;20029;-85
2023/08/02 13:31:29;;;;;;;8.38;4.45;;;20.70;99.90;;;;;;6099007;23;20025;-85
2023/08/02 13:34:04;;;;;;;7.85;4.05;;;20.50;99.90;;;;;;6125494;23;20021;-85
2023/08/02 13:36:35;;;;;;;8.88;4.88;;;20.50;99.90;;;;;;6123860;23;20328;-85
2023/08/02 13:39:01;;;;;;;10.40;5.07;;;20.50;99.90;;;;;;6125498;23;20014;-85
2023/08/02 13:41:27;;;;;;;9.68;4.70;;;20.60;99.90;;;;;;6125255;23;20105;-85
2023/08/02 13:43:55;;;;;;;9.32;4.90;;;20.70;99.90;;;;;;6123845;23;20120;-85
2023/08/02 13:46:38;;;;;;;8.90;4.63;;;21.00;99.90;;;;;;6125146;23;20021;-85
2023/08/02 13:49:03;;;;;;;9.68;4.10;;;21.00;99.90;;;;;;6098632;23;20033;-85
2023/08/02 13:51:33;;;;;;;8.88;4.80;;;21.10;99.90;;;;;;6125364;23;20013;-85
2023/08/02 13:54:37;;;;;;;8.45;4.47;;;21.30;99.90;;;;;;6099413;23;20018;-85
2023/08/02 13:57:25;;;;;;;8.95;4.47;;;21.50;99.90;;;;;;6097653;23;20018;-85
2023/08/02 14:00:09;;;;;;;9.52;4.43;;;21.50;99.90;;;;;;6124329;23;20088;-85
2023/08/02 14:02:44;;;;;;;8.80;4.32;;;21.20;99.90;;;;;;6124751;23;20478;-85
2023/08/02 14:05:22;;;;;;;10.02;4.90;;;21.00;99.90;;;;;;6124427;23;20010;-84
2023/08/02 14:07:48;;;;;;;9.25;4.93;;;20.60;99.90;;;;;;6121127;23;20030;-84
2023/08/02 14:10:20;;;;;;;10.00;5.30;;;20.30;99.90;;;;;;6097830;23;20766;-84
2023/08/02 14:12:50;;;;;;;10.13;5.15;;;20.20;99.90;;;;;;6097253;23;20052;-85
2023/08/02 14:15:18;;;;;;;8.38;4.70;;;20.10;99.90;;;;;;6098953;23;20184;-85
2023/08/02 14:17:47;;;;;;;8.77;4.78;;;20.00;99.90;;;;;;6097850;23;20118;-85
2023/08/02 14:20:21;;;;;;;9.18;4.70;;;19.90;99.90;;;;;;6098440;23;20121;-85
2023/08/02 14:22:49;;;;;;;;;;;19.80;99.90;;;;;;6124289;23;20533;-85
2023/08/02 14:25:18;;;;;;;8.23;4.15;;;19.80;99.90;;;;;;6098492;23;19917;-85
2023/08/02 14:27:46;;;;;;;7.53;3.53;;;19.90;99.90;;;;;;6099302;23;20093;-84
2023/08/02 14:30:21;;;;;;;7.80;3.53;;;20.00;99.90;;;;;;6099508;23;20014;-85
2023/08/02 14:32:55;;;;;;;8.30;3.50;;;20.00;99.90;;;;;;6097702;23;20018;-85
2023/08/02 14:35:23;;;;;;;9.07;3.30;;;20.10;99.90;;;;;;6100383;23;20049;-85
2023/08/02 14:37:57;;;;;;;7.30;3.00;;;20.10;99.90;;;;;;6099618;23;20096;-84
2023/08/02 14:40:23;;;;;;;7.78;2.75;;;20.70;99.90;;;;;;6097884;23;20056;-85
2023/08/02 14:42:55;;;;;;;6.47;2.40;;;20.50;99.90;;;;;;6098352;23;20018;-85
2023/08/02 14:45:20;;;;;;;7.88;2.70;;;20.80;99.90;;;;;;6123668;23;20097;-84
2023/08/02 14:47:46;;;;;;;6.53;2.60;;;20.80;99.90;;;;;;6097509;23;20062;-84
2023/08/02 14:50:19;;;;;;;6.60;2.63;;;20.70;99.90;;;;;;6100306;23;20033;-85
2023/08/02 14:52:54;;;;;;;7.43;2.60;;;20.50;99.90;;;;;;6103498;23;20053;-84
2023/08/02 14:55:20;;;;;;;7.50;2.60;;;20.50;99.90;;;;;;6108318;23;20335;-84
2023/08/02 14:57:49;;;;;;;6.82;2.75;;;20.40;99.90;;;;;;6126074;23;20057;-85
2023/08/02 15:00:18;;;;;;;7.50;2.70;;;20.50;99.90;;;;;;6125295;23;20394;-86
2023/08/02 15:03:24;;;;;;;7.43;2.70;;;20.70;99.90;;;;;;6100683;23;20018;-86
2023/08/02 15:06:56;;;;;;;7.47;2.78;;;21.10;99.90;;;;;;6125447;23;20533;-86
2023/08/02 15:10:16;;;;;;;;;;;;;;;;;;;;;
2023/08/02 15:13:19;;;;;;;6.97;2.60;;;21.30;99.90;;;;;;6038632;23;20078;-86
2023/08/02 15:41:09;;;;;;;7.07;2.38;;;20.60;99.90;;;;;;5966572;23;20020;-86
2023/08/02 15:43:43;;;;;;;7.00;1.90;;;21.00;99.90;;;;;;5983985;23;20155;-86
2023/08/02 15:57:45;;;;;;;9.48;2.00;;;19.30;99.90;;;;;;6067404;23;20023;-86
2023/08/02 16:00:11;;;;;;;10.70;2.08;;;19.10;99.90;;;;;;6111377;23;20460;-87
2023/08/02 16:02:39;;;;;;;7.03;2.15;;;18.90;99.90;;;;;;6154555;23;20029;-87
2023/08/02 16:05:06;;;;;;;9.00;2.13;;;18.80;99.90;;;;;;6130460;23;20021;-87
2023/08/02 16:07:35;;;;;;;9.15;2.00;;;18.70;99.90;;;;;;6156010;23;20438;-86
2023/08/02 16:10:01;;;;;;;8.45;2.17;;;18.70;99.90;;;;;;6126504;23;20025;-86
2023/08/02 16:13:01;;;;;;;9.32;2.08;;;18.90;99.90;;;;;;6154389;23;20027;-86
2023/08/02 16:15:37;;;;;;;8.93;2.10;;;18.80;99.90;;;;;;6129931;23;20431;-86
2023/08/02 16:18:02;;;;;;;8.77;1.90;;;19.00;99.90;;;;;;6128038;23;20443;-87
2023/08/02 16:20:40;;;;;;;11.15;2.20;;;19.10;99.90;;;;;;6155860;23;20014;-85
2023/08/02 16:23:12;;;;;;;9.20;2.10;;;19.10;99.90;;;;;;6129257;23;20017;-86
2023/08/02 16:26:10;;;;;;;9.05;2.05;;;19.00;99.90;;;;;;6128093;23;20018;-81
2023/08/02 16:28:36;;;;;;;9.57;1.98;;;18.90;99.90;;;;;;6116543;23;20096;-85
2023/08/02 16:31:25;;;;;;;7.38;1.95;;;18.80;99.90;;;;;;6128905;23;20057;-85
2023/08/02 16:34:11;;;;;;;7.50;2.08;;;18.60;99.90;;;;;;6129563;23;20080;-85
2023/08/02 16:36:37;;;;;;;6.45;1.80;;;18.50;99.90;;;;;;6154997;23;20049;-85
2023/08/02 16:39:15;;;;;;;9.70;2.05;;;18.50;99.90;;;;;;6128278;23;20427;-85
2023/08/02 16:41:41;;;;;;;8.05;1.90;;;18.60;99.90;;;;;;6129103;23;20438;-85
2023/08/02 16:44:10;;;;;;;8.48;1.90;;;18.40;99.90;;;;;;6154860;23;20018;-87
2023/08/02 16:46:38;;;;;;;6.05;1.80;;;18.40;99.90;;;;;;6128212;23;20028;-86
2023/08/02 16:49:04;;;;;;;8.55;1.80;;;18.90;99.90;;;;;;6129522;23;20025;-85
2023/08/02 16:51:32;;;;;;;10.60;1.90;;;18.70;99.90;;;;;;6126663;23;20389;-85
2023/08/02 16:58:01;;;;;;;7.25;1.60;;;20.40;99.90;;;;;;6055894;23;20072;-85
2023/08/02 17:00:27;;;;;;;8.02;1.73;;;20.60;99.90;;;;;;6151517;23;20023;-84
2023/08/02 17:02:52;;;;;;;8.55;1.60;;;20.20;99.90;;;;;;6128829;23;20033;-84
2023/08/02 17:05:30;;;;;;;7.85;2.15;;;19.50;99.90;;;;;;6155244;23;20017;-84
2023/08/02 17:07:56;;;;;;;9.30;1.88;;;19.50;99.90;;;;;;6127691;23;20092;-84
2023/08/02 17:10:31;;;;;;;6.90;1.98;;;19.60;99.90;;;;;;6129046;23;20051;-84
2023/08/02 17:13:09;;;;;;;9.57;1.80;;;19.90;99.90;;;;;;6153943;23;20014;-84
2023/08/02 17:15:35;;;;;;;6.80;1.80;;;19.80;99.90;;;;;;6128154;23;20029;-84
2023/08/02 17:18:04;;;;;;;9.30;2.05;;;19.70;99.90;;;;;;6128143;23;20092;-85
2023/08/02 17:20:51;;;;;;;9.07;1.70;;;19.60;99.90;;;;;;6127414;23;20048;-85
2023/08/02 17:23:17;;;;;;;7.95;1.80;;;19.40;99.90;;;;;;6128437;23;20079;-85
2023/08/02 17:25:43;;;;;;;8.25;1.70;;;19.50;99.90;;;;;;6129235;23;20430;-85
2023/08/02 17:28:09;;;;;;;11.02;2.05;;;19.20;99.90;;;;;;6128317;23;20496;-84
2023/08/02 17:34:24;;;;;;;13.55;2.13;;;18.90;99.90;;;;;;6154947;23;20016;-84
2023/08/02 17:37:24;;;;;;;9.17;1.87;;;18.90;99.90;;;;;;6155015;23;20064;-84
2023/08/02 17:39:54;;;;;;;11.93;2.33;;;18.80;99.90;;;;;;6129092;23;20022;-85
2023/08/02 17:42:31;;;;;;;11.48;2.17;;;18.70;99.90;;;;;;6154494;23;20021;-84
2023/08/02 17:44:59;;;;;;;8.07;2.20;;;18.50;99.90;;;;;;6155080;23;20076;-85
2023/08/02 17:48:23;;;;;;;;;;;;;;;;;;;;;
2023/08/02 17:51:32;;;;;;;9.45;2.20;;;18.70;99.90;;;;;;5936825;24;20028;-84
2023/08/02 17:54:44;;;;;;;10.98;1.83;;;18.60;99.90;;;;;;5947855;24;20070;-85
2023/08/02 17:57:09;;;;;;;12.20;2.10;;;18.60;99.90;;;;;;5965358;23;20014;-83
2023/08/02 17:59:35;;;;;;;9.13;2.20;;;18.60;99.90;;;;;;6123114;23;20021;-85
2023/08/02 18:02:07;;;;;;;8.25;1.95;;;18.60;99.90;;;;;;6098309;23;20501;-85
2023/08/02 18:04:54;;;;;;;7.32;1.80;;;18.40;99.90;;;;;;6099047;23;20351;-85
2023/08/02 18:07:32;;;;;;;8.02;1.80;;;18.20;99.90;;;;;;6098801;23;20018;-85
2023/08/02 18:10:21;;;;;;;8.27;1.70;;;18.10;99.90;;;;;;6123520;23;20017;-85
2023/08/02 18:16:54;;;;;;;6.15;1.60;;;17.80;99.90;;;;;;5867218;24;20155;-85
2023/08/02 18:19:40;;;;;;;8.80;2.00;;;17.60;99.90;;;;;;5941877;23;20033;-85
2023/08/02 18:22:19;;;;;;;8.10;1.70;;;17.50;99.90;;;;;;6127627;23;20013;-85
2023/08/02 18:25:17;;;;;;;10.65;2.28;;;17.50;99.90;;;;;;6127201;23;20022;-85
2023/08/02 18:27:51;;;;;;;7.80;1.70;;;17.40;99.90;;;;;;6069331;23;20020;-85
2023/08/02 18:30:44;;;;;;;8.57;1.60;;;17.60;99.90;;;;;;6126547;23;20095;-84
2023/08/02 18:33:13;;;;;;;6.60;1.70;;;17.40;99.90;;;;;;6156204;23;20010;-84
2023/08/02 18:36:05;;;;;;;6.35;1.98;;;17.30;99.90;;;;;;6129491;23;20320;-85
2023/08/02 18:38:52;;;;;;;10.45;2.08;;;17.10;99.90;;;;;;6128524;23;20023;-84
2023/08/02 18:41:38;;;;;;;7.70;1.85;;;17.20;99.90;;;;;;6129966;23;20056;-86
2023/08/02 18:44:04;;;;;;;8.90;2.08;;;17.10;99.90;;;;;;6156279;23;20032;-87
2023/08/02 18:46:42;;;;;;;9.95;2.03;;;17.10;99.90;;;;;;6127707;23;20006;-86
2023/08/02 18:49:26;;;;;;;7.65;1.83;;;17.00;99.90;;;;;;6154690;23;20021;-86
2023/08/02 18:52:29;;;;;;;;;;;;;;;;;;;;;
2023/08/02 18:55:07;;;;;;;8.43;2.42;;;16.90;99.90;;;;;;6129011;23;20341;-85
2023/08/02 18:57:34;;;;;;;7.15;2.10;;;16.90;99.90;;;;;;6156772;23;20017;-86
2023/08/02 19:00:07;;;;;;;9.60;1.90;;;16.90;99.90;;;;;;6129816;23;20014;-86
2023/08/02 19:02:42;;;;;;;9.57;2.00;;;16.90;99.90;;;;;;6157393;23;20018;-87
2023/08/02 19:05:12;;;;;;;11.30;2.15;;;16.90;99.90;;;;;;6131166;23;20021;-86
2023/08/02 19:07:40;;;;;;;7.30;2.00;;;16.90;99.90;;;;;;6129169;23;20018;-86
2023/08/02 19:10:52;;;;;;;10.32;2.33;;;16.90;99.90;;;;;;6157007;23;20096;-87
2023/08/02 19:14:10;;;;;;;8.93;2.10;;;16.90;99.90;;;;;;5864643;24;20021;-86
2023/08/02 19:16:38;;;;;;;9.45;2.35;;;16.70;99.90;;;;;;5961957;23;20127;-86
2023/08/02 19:19:20;;;;;;;9.57;2.40;;;17.00;99.90;;;;;;6013035;23;20106;-86
2023/08/02 19:22:20;;;;;;;10.95;2.30;;;17.00;99.90;;;;;;6011777;23;20455;-87
2023/08/02 19:24:46;;;;;;;8.07;2.30;;;16.90;99.90;;;;;;5979143;23;20063;-87
2023/08/02 19:27:15;;;;;;;11.02;2.10;;;16.90;99.90;;;;;;6013399;23;20027;-87
2023/08/02 19:29:55;;;;;;;;;;;;;;;;;;;;;
2023/08/02 19:33:51;;;;;;;10.00;2.25;;;16.90;99.90;;;;;;5998686;23;20023;-90
2023/08/02 19:36:18;;;;;;;14.50;2.50;;;16.90;99.90;;;;;;6037576;23;20341;-88
2023/08/02 19:38:50;;;;;;;10.80;2.83;;;16.90;99.90;;;;;;6113837;23;20049;-89
2023/08/02 19:41:45;;;;;;;10.70;2.30;;;17.30;99.90;;;;;;6127722;23;20026;-87
2023/08/02 19:49:43;;;;;;;11.10;2.30;;;17.00;99.90;;;;;;6146287;23;20037;-86
2023/08/02 19:52:10;;;;;;;9.90;2.10;;;16.90;99.90;;;;;;6106311;23;20018;-87
2023/08/02 19:55:20;;;;;;;9.38;2.15;;;16.90;99.90;;;;;;6098842;23;20025;-87
2023/08/02 19:57:48;;;;;;;10.00;2.10;;;16.90;99.90;;;;;;6099371;23;20316;-88
2023/08/02 20:00:28;;;;;;;9.75;2.30;;;17.30;99.90;;;;;;6100006;23;20029;-87
2023/08/02 20:03:09;;;;;;;10.30;2.30;;;16.80;99.90;;;;;;6099031;23;20043;-88
2023/08/02 20:12:46;;;;;;;13.23;2.10;;;16.60;99.90;;;;;;6130784;23;20022;-86
2023/08/02 20:15:14;;;;;;;9.35;2.00;;;16.70;99.90;;;;;;6129638;23;20517;-87
2023/08/02 20:18:52;;;;;;;9.38;2.20;;;16.80;99.90;;;;;;6103332;23;20026;-87
2023/08/02 20:21:20;;;;;;;13.27;2.20;;;16.30;99.90;;;;;;6017111;23;20208;-87
2023/08/02 20:23:57;;;;;;;10.75;2.17;;;16.70;99.90;;;;;;6031778;23;20434;-87
2023/08/02 20:26:27;;;;;;;11.90;2.45;;;16.80;99.90;;;;;;6132184;23;20021;-86
2023/08/02 20:28:56;;;;;;;9.77;2.13;;;16.60;99.90;;;;;;6132670;23;20033;-87
2023/08/02 20:31:23;;;;;;;11.27;2.35;;;16.50;99.90;;;;;;6133459;23;20017;-87
2023/08/02 20:37:22;;;;;;;9.82;2.75;;;16.60;99.90;;;;;;6116200;23;20021;-87
2023/08/02 20:39:48;;;;;;;12.35;2.97;;;16.50;99.90;;;;;;6159126;23;20064;-87
2023/08/02 20:42:14;;;;;;;11.00;2.30;;;16.50;99.90;;;;;;6132115;23;20026;-88
2023/08/02 20:44:49;;;;;;;10.32;2.40;;;16.50;99.90;;;;;;6131549;23;20014;-87
2023/08/02 20:47:21;;;;;;;9.68;2.67;;;16.50;99.90;;;;;;6137154;23;20112;-86
2023/08/02 20:49:53;;;;;;;11.27;2.65;;;16.40;99.90;;;;;;6153762;23;20006;-86
2023/08/02 20:52:20;;;;;;;11.70;2.60;;;16.40;99.90;;;;;;6136957;23;20543;-86
2023/08/02 20:54:51;;;;;;;12.00;2.40;;;17.20;99.90;;;;;;6164056;23;20018;-87
2023/08/02 20:57:29;;;;;;;11.45;2.60;;;16.30;99.90;;;;;;6132976;23;20029;-87
2023/08/02 21:00:25;;;;;;;;;;;;;;;;;;;;;
2023/08/02 21:03:18;;;;;;;9.75;2.50;;;16.20;99.90;;;;;;6134400;23;20017;-89
2023/08/02 21:06:07;;;;;;;9.68;2.65;;;16.10;99.90;;;;;;6131423;23;20056;-89
2023/08/02 21:08:40;;;;;;;10.27;2.60;;;15.80;99.90;;;;;;5986451;23;20020;-90
2023/08/02 21:11:09;;;;;;;9.90;2.60;;;16.10;99.90;;;;;;5985795;23;20034;-90
2023/08/02 21:13:50;;;;;;;11.70;2.50;;;15.80;99.90;;;;;;6007586;23;20030;-91
2023/08/02 21:23:27;;;;;;;;;;;;;;;;;;;;;
2023/08/02 21:26:44;;;;;;;13.65;2.78;;;15.80;99.90;;;;;;6076028;23;20393;-90
2023/08/02 21:29:19;;;;;;;8.18;2.40;;;16.10;99.90;;;;;;6128852;23;20096;-90
2023/08/02 21:32:02;;;;;;;9.73;2.60;;;15.80;99.90;;;;;;6129021;23;20014;-91
2023/08/02 21:34:31;;;;;;;10.38;2.50;;;15.80;99.90;;;;;;6127869;23;20096;-89
2023/08/02 21:37:10;;;;;;;12.20;2.55;;;16.00;99.90;;;;;;6129166;23;20104;-90
2023/08/02 21:44:03;;;;;;;7.93;2.50;;;15.50;99.90;;;;;;6154989;23;20025;-90
2023/08/02 21:46:30;;;;;;;10.30;2.50;;;15.70;99.90;;;;;;6141908;23;20109;-91
2023/08/02 21:49:05;;;;;;;9.30;2.25;;;15.70;99.90;;;;;;6098594;23;20049;-90
2023/08/02 21:51:39;;;;;;;9.65;2.40;;;15.80;99.90;;;;;;6135116;23;20346;-91
2023/08/02 21:54:30;;;;;;;8.85;2.28;;;15.80;99.90;;;;;;6129087;23;20099;-90
2023/08/02 21:57:11;;;;;;;8.63;2.35;;;15.70;99.90;;;;;;6155115;23;20018;-91
2023/08/02 22:05:45;;;;;;;9.68;2.40;;;15.60;99.90;;;;;;6153396;23;20029;-92
2023/08/02 22:09:07;;;;;;;8.15;2.33;;;15.60;99.90;;;;;;6128681;23;20017;-90
2023/08/02 22:11:36;;;;;;;6.70;2.20;;;15.60;99.90;;;;;;6155270;23;20025;-90
2023/08/02 22:14:14;;;;;;;10.35;2.65;;;15.70;99.90;;;;;;6124613;23;20192;-90
2023/08/02 22:16:42;;;;;;;7.60;2.40;;;15.60;99.90;;;;;;6154331;23;20025;-90
2023/08/02 22:19:27;;;;;;;7.65;2.00;;;15.60;99.90;;;;;;6128957;23;20017;-90
2023/08/02 22:21:53;;;;;;;9.32;2.40;;;15.60;99.90;;;;;;6096649;23;20026;-91
2023/08/02 22:24:35;;;;;;;9.77;2.30;;;15.70;99.90;;;;;;6129484;23;20028;-90
2023/08/02 22:27:14;;;;;;;7.60;2.20;;;15.20;99.90;;;;;;6155959;23;20013;-90
2023/08/02 22:30:05;;;;;;;9.27;2.40;;;15.60;99.90;;;;;;6154874;23;20020;-90
2023/08/02 22:32:40;;;;;;;7.50;2.28;;;15.40;99.90;;;;;;6155677;23;20029;-91
2023/08/02 22:35:21;;;;;;;10.25;2.30;;;15.60;99.90;;;;;;6155243;23;20167;-90
2023/08/02 22:37:47;;;;;;;9.85;2.53;;;15.60;99.90;;;;;;6150347;23;20029;-91
2023/08/02 22:40:21;;;;;;;6.90;2.13;;;15.60;99.90;;;;;;6129406;23;20056;-91
2023/08/02 22:43:37;;;;;;;8.82;2.22;;;15.60;99.90;;;;;;6154126;23;20052;-91
2023/08/02 22:49:41;;;;;;;11.82;2.75;;;15.70;99.90;;;;;;6151022;23;20350;-90
2023/08/02 22:52:32;;;;;;;10.52;2.55;;;15.70;99.90;;;;;;6125309;23;20449;-90
2023/08/02 22:55:12;;;;;;;8.40;2.58;;;15.40;99.90;;;;;;6126817;23;20346;-90
2023/08/02 22:57:43;;;;;;;8.65;2.15;;;15.80;99.90;;;;;;6098329;23;20048;-90
2023/08/02 23:00:36;;;;;;;9.98;2.55;;;15.80;99.90;;;;;;6125933;23;20045;-90
2023/08/02 23:07:13;;;;;;;8.13;2.20;;;15.90;99.90;;;;;;6151692;23;20418;-90
2023/08/02 23:10:28;;;;;;;9.23;2.63;;;15.90;99.90;;;;;;6154717;23;20072;-91
2023/08/02 23:13:08;;;;;;;8.20;2.10;;;16.00;99.90;;;;;;6100030;23;20049;-90
2023/08/02 23:15:40;;;;;;;8.25;2.40;;;15.80;99.90;;;;;;6156870;23;20013;-90
2023/08/02 23:18:15;;;;;;;9.93;2.30;;;15.80;99.90;;;;;;6130806;23;20018;-90
2023/08/02 23:23:37;;;;;;;10.98;2.35;;;15.80;99.90;;;;;;6154831;23;20018;-90
2023/08/02 23:27:15;;;;;;;7.97;2.35;;;15.80;99.90;;;;;;6129780;23;20350;-91
2023/08/02 23:30:33;;;;;;;;;;;;;;;;;;;;;
2023/08/02 23:36:19;;;;;;;8.20;2.38;;;16.40;99.90;;;;;;6125959;23;20455;-89
2023/08/02 23:38:51;;;;;;;10.07;2.60;;;15.90;99.90;;;;;;6100557;23;20056;-90
2023/08/02 23:41:37;;;;;;;8.55;2.50;;;15.50;99.90;;;;;;6101626;23;20097;-90
2023/08/02 23:44:06;;;;;;;8.60;2.20;;;15.90;99.90;;;;;;6157435;23;20021;-90
2023/08/02 23:46:39;;;;;;;8.35;2.30;;;15.90;99.90;;;;;;6073833;23;20046;31
2023/08/02 23:52:26;;;;;;;8.45;2.50;;;15.90;99.90;;;;;;6159756;23;20073;-91
2023/08/02 23:58:03;;;;;;;8.18;2.38;;;15.90;99.90;;;;;;6144910;23;20029;-91
